createdAt,value
2023-03-06T00:00:05.355Z,228.00
2023-03-06T00:00:44.805Z,228.00
2023-03-06T00:01:18.496Z,228.00
2023-03-06T00:01:50.726Z,228.67
2023-03-06T00:02:22.460Z,229.00
2023-03-06T00:02:54.119Z,229.67
2023-03-06T00:03:28.088Z,231.00
2023-03-06T00:03:59.914Z,230.67
2023-03-06T00:04:31.549Z,230.00
2023-03-06T00:05:03.547Z,230.00
2023-03-06T00:05:35.315Z,232.33
2023-03-06T00:06:07.492Z,237.00
2023-03-06T00:06:39.236Z,243.67
2023-03-06T00:07:10.853Z,249.67
2023-03-06T00:07:43.446Z,253.33
2023-03-06T00:08:15.528Z,254.00
2023-03-06T00:08:47.217Z,254.33
2023-03-06T00:09:18.865Z,257.33
2023-03-06T00:09:50.552Z,260.67
2023-03-06T00:10:25.164Z,264.33
2023-03-06T00:10:57.756Z,271.67
2023-03-06T00:11:29.398Z,286.00
2023-03-06T00:12:01.070Z,301.33
2023-03-06T00:12:32.737Z,312.00
2023-03-06T00:13:08.249Z,321.67
2023-03-06T00:13:39.896Z,332.33
2023-03-06T00:14:11.581Z,330.67
2023-03-06T00:14:43.387Z,320.00
2023-03-06T00:15:15.035Z,307.67
2023-03-06T00:15:47.844Z,299.33
2023-03-06T00:16:19.483Z,291.67
2023-03-06T00:16:55.945Z,288.00
2023-03-06T00:17:28.840Z,287.00
2023-03-06T00:18:02.673Z,286.00
2023-03-06T00:18:34.683Z,285.67
2023-03-06T00:19:06.310Z,285.33
2023-03-06T00:19:37.946Z,285.00
2023-03-06T00:20:11.942Z,284.33
2023-03-06T00:20:45.024Z,284.00
2023-03-06T00:21:16.687Z,284.00
2023-03-06T00:21:48.397Z,283.00
2023-03-06T00:22:20.092Z,283.00
2023-03-06T00:22:51.756Z,282.67
2023-03-06T00:23:23.401Z,282.00
2023-03-06T00:23:55.085Z,281.67
2023-03-06T00:24:26.759Z,281.00
2023-03-06T00:24:58.591Z,280.67
2023-03-06T00:25:30.651Z,280.00
2023-03-06T00:26:02.519Z,279.00
2023-03-06T00:26:35.678Z,278.67
2023-03-06T00:27:07.355Z,278.00
2023-03-06T00:27:39.098Z,276.00
2023-03-06T00:28:12.293Z,273.00
2023-03-06T00:28:44.275Z,270.00
2023-03-06T00:29:15.909Z,260.67
2023-03-06T00:29:49.783Z,243.33
2023-03-06T00:30:23.425Z,226.33
2023-03-06T00:30:55.077Z,217.00
2023-03-06T00:31:26.743Z,213.33
2023-03-06T00:31:58.437Z,212.33
2023-03-06T00:32:30.098Z,213.67
2023-03-06T00:33:01.801Z,211.33
2023-03-06T00:33:33.457Z,208.67
2023-03-06T00:34:05.139Z,204.00
2023-03-06T00:34:36.825Z,199.67
2023-03-06T00:35:08.799Z,197.33
2023-03-06T00:35:41.617Z,195.67
2023-03-06T00:36:13.280Z,193.33
2023-03-06T00:36:44.980Z,192.33
2023-03-06T00:37:16.635Z,193.00
2023-03-06T00:37:48.344Z,192.33
2023-03-06T00:38:20.105Z,191.00
2023-03-06T00:38:51.775Z,189.33
2023-03-06T00:39:23.623Z,188.00
2023-03-06T00:39:55.448Z,186.67
2023-03-06T00:40:27.470Z,182.00
2023-03-06T00:40:59.836Z,178.67
2023-03-06T00:41:31.492Z,178.67
2023-03-06T00:42:03.133Z,177.67
2023-03-06T00:42:34.859Z,179.33
2023-03-06T00:43:06.554Z,182.00
2023-03-06T00:43:38.533Z,186.00
2023-03-06T00:44:10.189Z,188.00
2023-03-06T00:44:42.137Z,188.33
2023-03-06T00:45:14.497Z,188.00
2023-03-06T00:45:46.179Z,186.67
2023-03-06T00:46:17.884Z,184.33
2023-03-06T00:46:49.573Z,181.67
2023-03-06T00:47:21.364Z,178.33
2023-03-06T00:47:53.035Z,176.67
2023-03-06T00:48:24.721Z,176.33
2023-03-06T00:48:56.453Z,174.67
2023-03-06T00:49:28.089Z,173.67
2023-03-06T00:49:59.765Z,173.00
2023-03-06T00:50:31.396Z,173.00
2023-03-06T00:51:03.083Z,173.00
2023-03-06T00:51:34.792Z,172.67
2023-03-06T00:52:06.475Z,173.00
2023-03-06T00:52:38.408Z,172.33
2023-03-06T00:53:11.125Z,172.33
2023-03-06T00:53:42.848Z,173.00
2023-03-06T00:54:14.699Z,172.00
2023-03-06T00:54:46.377Z,171.00
2023-03-06T00:55:18.107Z,171.00
2023-03-06T00:55:50.797Z,171.00
2023-03-06T00:56:22.505Z,169.33
2023-03-06T00:56:54.185Z,168.33
2023-03-06T00:57:25.993Z,167.00
2023-03-06T00:57:57.676Z,164.67
2023-03-06T00:58:29.345Z,163.67
2023-03-06T00:59:01.002Z,162.67
2023-03-06T00:59:32.641Z,160.67
2023-03-06T01:00:06.210Z,159.33
2023-03-06T01:00:38.483Z,157.00
2023-03-06T01:01:10.217Z,154.67
2023-03-06T01:01:42.119Z,155.33
2023-03-06T01:02:13.873Z,156.67
2023-03-06T01:02:45.572Z,157.00
2023-03-06T01:03:17.291Z,157.67
2023-03-06T01:03:48.979Z,158.00
2023-03-06T01:04:21.120Z,156.33
2023-03-06T01:04:52.747Z,153.00
2023-03-06T01:05:24.898Z,150.33
2023-03-06T01:05:56.704Z,150.00
2023-03-06T01:06:28.386Z,150.33
2023-03-06T01:07:00.033Z,151.00
2023-03-06T01:07:34.068Z,151.00
2023-03-06T01:08:06.742Z,151.67
2023-03-06T01:08:38.527Z,152.00
2023-03-06T01:09:10.265Z,151.33
2023-03-06T01:09:41.920Z,150.00
2023-03-06T01:10:13.689Z,148.00
2023-03-06T01:10:45.357Z,146.67
2023-03-06T01:11:17.021Z,146.33
2023-03-06T01:11:48.664Z,145.33
2023-03-06T01:12:22.841Z,143.67
2023-03-06T01:12:55.283Z,140.33
2023-03-06T01:13:27.016Z,140.00
2023-03-06T01:13:58.665Z,138.00
2023-03-06T01:14:31.490Z,132.00
2023-03-06T01:15:04.507Z,125.00
2023-03-06T01:15:36.555Z,125.00
2023-03-06T01:16:13.786Z,124.33
2023-03-06T01:16:46.732Z,123.33
2023-03-06T01:17:18.418Z,123.67
2023-03-06T01:17:56.586Z,124.00
2023-03-06T01:18:28.212Z,116.67
2023-03-06T01:19:00.016Z,111.67
2023-03-06T01:19:31.689Z,108.00
2023-03-06T01:20:04.269Z,104.00
2023-03-06T01:20:35.908Z,101.00
2023-03-06T01:21:07.924Z,99.00
2023-03-06T01:21:39.904Z,99.33
2023-03-06T01:22:11.584Z,98.67
2023-03-06T01:22:43.502Z,98.67
2023-03-06T01:23:15.173Z,98.33
2023-03-06T01:23:47.497Z,99.00
2023-03-06T01:24:19.123Z,97.33
2023-03-06T01:24:50.758Z,96.33
2023-03-06T01:25:25.177Z,96.33
2023-03-06T01:25:57.200Z,97.67
2023-03-06T01:26:28.902Z,98.00
2023-03-06T01:27:00.556Z,98.00
2023-03-06T01:27:32.441Z,97.33
2023-03-06T01:28:04.182Z,95.00
2023-03-06T01:28:37.782Z,91.00
2023-03-06T01:29:09.780Z,90.33
2023-03-06T01:29:41.638Z,91.67
2023-03-06T01:30:13.675Z,91.00
2023-03-06T01:30:45.299Z,91.00
2023-03-06T01:31:16.990Z,92.00
2023-03-06T01:31:48.735Z,92.00
2023-03-06T01:32:21.488Z,90.67
2023-03-06T01:32:53.200Z,89.33
2023-03-06T01:33:24.935Z,90.33
2023-03-06T01:33:56.647Z,91.00
2023-03-06T01:34:28.331Z,92.00
2023-03-06T01:34:59.996Z,92.67
2023-03-06T01:35:31.707Z,93.00
2023-03-06T01:36:07.132Z,93.00
2023-03-06T01:36:38.907Z,93.00
2023-03-06T01:37:10.596Z,93.00
2023-03-06T01:37:42.537Z,93.00
2023-03-06T01:38:14.769Z,93.00
2023-03-06T01:38:46.413Z,93.00
2023-03-06T01:39:18.085Z,93.00
2023-03-06T01:39:49.985Z,92.33
2023-03-06T01:40:21.810Z,91.67
2023-03-06T01:40:53.478Z,91.00
2023-03-06T01:41:25.140Z,91.00
2023-03-06T01:41:56.798Z,91.00
2023-03-06T01:42:28.477Z,91.00
2023-03-06T01:43:09.650Z,90.67
2023-03-06T01:43:44.215Z,90.00
2023-03-06T01:44:15.883Z,90.00
2023-03-06T01:45:03.524Z,89.33
2023-03-06T01:45:35.197Z,88.33
2023-03-06T01:46:24.903Z,87.67
2023-03-06T01:46:56.617Z,87.00
2023-03-06T01:47:28.637Z,87.67
2023-03-06T01:48:00.285Z,88.00
2023-03-06T01:48:31.930Z,88.00
2023-03-06T01:49:06.556Z,89.00
2023-03-06T01:49:41.187Z,89.33
2023-03-06T01:50:13.228Z,90.00
2023-03-06T01:50:45.048Z,90.00
2023-03-06T01:51:17.367Z,89.33
2023-03-06T01:52:04.697Z,89.00
2023-03-06T01:52:45.500Z,89.00
2023-03-06T01:53:18.611Z,89.00
2023-03-06T01:53:52.390Z,89.00
2023-03-06T01:54:39.352Z,89.67
2023-03-06T01:55:18.122Z,90.00
2023-03-06T01:55:50.161Z,91.00
2023-03-06T01:56:23.591Z,91.67
2023-03-06T01:57:02.276Z,93.00
2023-03-06T01:57:38.531Z,94.00
2023-03-06T01:58:16.015Z,94.33
2023-03-06T01:58:49.641Z,95.67
2023-03-06T01:59:23.861Z,96.00
2023-03-06T02:00:20.739Z,96.00
2023-03-06T02:00:52.772Z,90.33
2023-03-06T02:01:24.701Z,87.33
2023-03-06T02:02:01.689Z,86.00
2023-03-06T02:02:33.652Z,86.67
2023-03-06T02:03:14.925Z,87.33
2023-03-06T02:03:49.912Z,89.33
2023-03-06T02:04:21.796Z,90.00
2023-03-06T02:04:53.419Z,90.00
2023-03-06T02:05:25.270Z,90.00
2023-03-06T02:05:59.342Z,90.00
2023-03-06T02:06:31.010Z,88.67
2023-03-06T02:07:06.528Z,88.00
2023-03-06T02:07:38.755Z,89.00
2023-03-06T02:08:13.940Z,89.33
2023-03-06T02:08:48.955Z,90.00
2023-03-06T02:09:20.765Z,90.33
2023-03-06T02:09:52.472Z,91.00
2023-03-06T02:10:24.459Z,91.33
2023-03-06T02:11:15.614Z,92.00
2023-03-06T02:11:47.506Z,92.00
2023-03-06T02:12:21.904Z,92.00
2023-03-06T02:12:53.670Z,92.00
2023-03-06T02:13:25.431Z,92.00
2023-03-06T02:13:57.682Z,94.00
2023-03-06T02:14:30.189Z,102.67
2023-03-06T02:15:02.342Z,116.67
2023-03-06T02:15:34.021Z,114.33
2023-03-06T02:16:06.737Z,110.33
2023-03-06T02:16:39.078Z,109.00
2023-03-06T02:17:13.894Z,108.67
2023-03-06T02:17:47.598Z,107.67
2023-03-06T02:18:19.257Z,106.67
2023-03-06T02:18:51.579Z,104.67
2023-03-06T02:19:46.272Z,101.00
2023-03-06T02:20:20.948Z,98.00
2023-03-06T02:20:59.500Z,92.67
2023-03-06T02:21:35.552Z,81.33
2023-03-06T02:22:07.323Z,73.67
2023-03-06T02:23:05.953Z,69.67
2023-03-06T02:24:03.596Z,66.33
2023-03-06T02:24:45.788Z,69.00
2023-03-06T02:25:40.963Z,73.00
2023-03-06T02:26:13.649Z,75.33
2023-03-06T02:26:47.665Z,76.00
2023-03-06T02:27:19.965Z,77.00
2023-03-06T02:27:51.648Z,77.00
2023-03-06T02:28:24.090Z,78.00
2023-03-06T02:28:57.588Z,78.00
2023-03-06T02:29:30.336Z,79.00
2023-03-06T02:30:06.821Z,79.00
2023-03-06T02:30:40.098Z,79.00
2023-03-06T02:31:28.076Z,79.33
2023-03-06T02:31:59.854Z,77.00
2023-03-06T02:32:31.523Z,73.00
2023-03-06T02:33:03.572Z,69.33
2023-03-06T02:33:35.228Z,68.33
2023-03-06T02:34:15.831Z,68.00
2023-03-06T02:34:56.052Z,68.00
2023-03-06T02:35:31.350Z,68.00
2023-03-06T02:36:06.406Z,68.33
2023-03-06T02:36:45.540Z,69.00
2023-03-06T02:37:17.356Z,70.00
2023-03-06T02:37:49.962Z,70.33
2023-03-06T02:38:27.746Z,71.00
2023-03-06T02:39:00.038Z,72.00
2023-03-06T02:39:38.005Z,77.00
2023-03-06T02:40:13.475Z,83.00
2023-03-06T02:40:49.664Z,86.00
2023-03-06T02:41:21.309Z,85.33
2023-03-06T02:41:53.015Z,84.67
2023-03-06T02:42:26.637Z,83.67
2023-03-06T02:42:59.737Z,82.33
2023-03-06T02:43:35.848Z,80.00
2023-03-06T02:44:07.742Z,76.67
2023-03-06T02:44:39.413Z,72.00
2023-03-06T02:45:15.107Z,66.33
2023-03-06T02:45:50.119Z,62.67
2023-03-06T02:46:21.814Z,60.33
2023-03-06T02:46:53.532Z,60.00
2023-03-06T02:47:25.251Z,60.33
2023-03-06T02:47:56.912Z,59.33
2023-03-06T02:48:28.610Z,59.33
2023-03-06T02:49:00.262Z,58.67
2023-03-06T02:49:31.887Z,58.00
2023-03-06T02:50:03.756Z,56.67
2023-03-06T02:50:35.444Z,56.00
2023-03-06T02:51:07.087Z,56.00
2023-03-06T02:51:38.724Z,56.00
2023-03-06T02:52:10.393Z,55.00
2023-03-06T02:52:42.025Z,54.00
2023-03-06T02:53:16.433Z,53.33
2023-03-06T02:53:48.112Z,53.00
2023-03-06T02:54:19.888Z,53.67
2023-03-06T02:54:51.593Z,54.00
2023-03-06T02:55:23.453Z,55.00
2023-03-06T02:55:55.129Z,55.00
2023-03-06T02:56:26.902Z,55.33
2023-03-06T02:56:58.559Z,56.00
2023-03-06T02:57:30.254Z,56.00
2023-03-06T02:58:02.419Z,56.67
2023-03-06T02:58:34.135Z,57.67
2023-03-06T02:59:05.791Z,60.00
2023-03-06T02:59:37.458Z,62.67
2023-03-06T03:00:10.398Z,63.33
2023-03-06T03:00:42.318Z,64.00
2023-03-06T03:01:13.991Z,64.00
2023-03-06T03:01:47.769Z,64.00
2023-03-06T03:02:19.551Z,65.00
2023-03-06T03:02:51.745Z,65.00
2023-03-06T03:03:23.401Z,65.00
2023-03-06T03:03:55.066Z,64.67
2023-03-06T03:04:27.950Z,64.00
2023-03-06T03:04:59.651Z,64.00
2023-03-06T03:05:31.960Z,64.00
2023-03-06T03:06:05.831Z,64.00
2023-03-06T03:06:37.627Z,65.00
2023-03-06T03:07:09.298Z,66.00
2023-03-06T03:07:41.122Z,67.33
2023-03-06T03:08:13.004Z,68.67
2023-03-06T03:08:44.825Z,70.33
2023-03-06T03:09:16.656Z,71.00
2023-03-06T03:09:48.402Z,71.00
2023-03-06T03:10:20.201Z,71.00
2023-03-06T03:10:52.130Z,71.00
2023-03-06T03:11:23.787Z,71.00
2023-03-06T03:11:55.681Z,71.00
2023-03-06T03:12:28.732Z,71.00
2023-03-06T03:13:00.466Z,71.00
2023-03-06T03:13:32.901Z,72.00
2023-03-06T03:14:04.508Z,72.67
2023-03-06T03:14:36.166Z,73.33
2023-03-06T03:15:09.011Z,75.00
2023-03-06T03:15:41.281Z,79.67
2023-03-06T03:16:15.545Z,83.00
2023-03-06T03:16:47.405Z,81.67
2023-03-06T03:17:19.048Z,80.67
2023-03-06T03:17:50.733Z,80.00
2023-03-06T03:18:22.358Z,80.00
2023-03-06T03:18:54.069Z,79.00
2023-03-06T03:19:26.013Z,79.00
2023-03-06T03:19:57.795Z,79.00
2023-03-06T03:20:29.446Z,78.67
2023-03-06T03:21:01.562Z,78.00
2023-03-06T03:21:33.221Z,78.00
2023-03-06T03:22:05.030Z,78.00
2023-03-06T03:22:36.748Z,78.00
2023-03-06T03:23:08.401Z,79.00
2023-03-06T03:23:40.731Z,79.00
2023-03-06T03:24:12.395Z,79.67
2023-03-06T03:24:44.321Z,80.00
2023-03-06T03:25:17.315Z,81.00
2023-03-06T03:25:49.040Z,81.00
2023-03-06T03:26:21.933Z,81.00
2023-03-06T03:26:53.617Z,82.00
2023-03-06T03:27:25.312Z,82.00
2023-03-06T03:27:56.966Z,82.00
2023-03-06T03:28:28.736Z,82.00
2023-03-06T03:29:00.432Z,81.00
2023-03-06T03:29:32.707Z,81.00
2023-03-06T03:30:05.000Z,81.00
2023-03-06T03:30:36.644Z,80.67
2023-03-06T03:31:10.238Z,80.00
2023-03-06T03:31:42.023Z,80.00
2023-03-06T03:32:13.691Z,80.00
2023-03-06T03:32:45.523Z,80.00
2023-03-06T03:33:17.171Z,80.67
2023-03-06T03:33:49.069Z,81.00
2023-03-06T03:34:21.690Z,81.00
2023-03-06T03:34:55.469Z,82.33
2023-03-06T03:35:27.189Z,83.33
2023-03-06T03:36:00.959Z,86.67
2023-03-06T03:36:32.599Z,96.67
2023-03-06T03:37:04.668Z,101.67
2023-03-06T03:37:36.538Z,101.00
2023-03-06T03:38:08.266Z,103.33
2023-03-06T03:38:40.132Z,108.33
2023-03-06T03:39:11.912Z,113.33
2023-03-06T03:39:43.653Z,111.00
2023-03-06T03:40:15.295Z,107.67
2023-03-06T03:40:46.951Z,105.33
2023-03-06T03:41:18.770Z,103.67
2023-03-06T03:41:50.422Z,102.67
2023-03-06T03:42:22.374Z,102.00
2023-03-06T03:42:54.035Z,101.00
2023-03-06T03:43:25.695Z,101.00
2023-03-06T03:43:57.324Z,102.33
2023-03-06T03:44:28.991Z,105.67
2023-03-06T03:45:00.634Z,111.00
2023-03-06T03:45:32.289Z,116.00
2023-03-06T03:46:04.410Z,123.67
2023-03-06T03:46:36.519Z,131.33
2023-03-06T03:47:08.227Z,133.00
2023-03-06T03:47:40.518Z,132.00
2023-03-06T03:48:12.352Z,129.67
2023-03-06T03:48:44.153Z,128.33
2023-03-06T03:49:15.908Z,126.33
2023-03-06T03:49:47.671Z,127.00
2023-03-06T03:50:19.518Z,126.67
2023-03-06T03:50:51.249Z,128.33
2023-03-06T03:51:23.205Z,132.33
2023-03-06T03:51:54.848Z,141.67
2023-03-06T03:52:26.505Z,150.67
2023-03-06T03:52:58.124Z,151.00
2023-03-06T03:53:29.768Z,143.33
2023-03-06T03:54:01.386Z,137.67
2023-03-06T03:54:33.041Z,135.33
2023-03-06T03:55:05.570Z,134.33
2023-03-06T03:55:37.428Z,134.33
2023-03-06T03:56:09.110Z,136.33
2023-03-06T03:56:41.758Z,137.00
2023-03-06T03:57:13.413Z,136.67
2023-03-06T03:57:45.081Z,136.00
2023-03-06T03:58:16.791Z,136.33
2023-03-06T03:58:48.619Z,138.33
2023-03-06T03:59:20.969Z,143.33
2023-03-06T03:59:52.790Z,153.33
2023-03-06T04:00:24.515Z,158.67
2023-03-06T04:00:56.256Z,155.67
2023-03-06T04:01:28.129Z,152.33
2023-03-06T04:02:00.119Z,149.33
2023-03-06T04:02:31.814Z,147.33
2023-03-06T04:03:03.547Z,146.33
2023-03-06T04:03:35.379Z,145.67
2023-03-06T04:04:07.286Z,144.33
2023-03-06T04:04:38.972Z,144.00
2023-03-06T04:05:15.518Z,143.00
2023-03-06T04:05:47.305Z,143.00
2023-03-06T04:06:19.611Z,143.00
2023-03-06T04:06:51.465Z,143.00
2023-03-06T04:07:23.085Z,143.00
2023-03-06T04:07:54.770Z,144.00
2023-03-06T04:08:27.093Z,144.67
2023-03-06T04:08:58.926Z,147.00
2023-03-06T04:09:49.267Z,150.33
2023-03-06T04:10:21.056Z,151.33
2023-03-06T04:10:54.306Z,153.00
2023-03-06T04:11:26.014Z,158.00
2023-03-06T04:11:57.672Z,164.00
2023-03-06T04:12:29.341Z,167.67
2023-03-06T04:13:01.116Z,170.67
2023-03-06T04:13:33.179Z,172.67
2023-03-06T04:14:04.890Z,173.33
2023-03-06T04:14:36.602Z,175.00
2023-03-06T04:15:09.106Z,177.33
2023-03-06T04:15:40.744Z,180.00
2023-03-06T04:16:12.489Z,182.00
2023-03-06T04:16:44.260Z,185.00
2023-03-06T04:17:15.923Z,186.33
2023-03-06T04:17:47.761Z,186.00
2023-03-06T04:18:20.806Z,187.00
2023-03-06T04:18:52.448Z,183.00
2023-03-06T04:19:24.336Z,180.00
2023-03-06T04:19:56.003Z,177.67
2023-03-06T04:20:28.247Z,176.33
2023-03-06T04:20:59.884Z,175.67
2023-03-06T04:21:31.573Z,175.00
2023-03-06T04:22:03.237Z,174.33
2023-03-06T04:22:34.887Z,174.00
2023-03-06T04:23:06.519Z,173.67
2023-03-06T04:23:38.231Z,173.00
2023-03-06T04:24:09.876Z,173.00
2023-03-06T04:24:41.531Z,172.00
2023-03-06T04:25:13.289Z,171.00
2023-03-06T04:25:46.328Z,169.67
2023-03-06T04:26:18.040Z,168.33
2023-03-06T04:26:49.693Z,167.67
2023-03-06T04:27:21.350Z,167.00
2023-03-06T04:27:52.983Z,167.00
2023-03-06T04:28:24.993Z,167.00
2023-03-06T04:28:56.696Z,167.00
2023-03-06T04:29:28.401Z,168.67
2023-03-06T04:30:00.158Z,170.00
2023-03-06T04:30:31.908Z,169.67
2023-03-06T04:31:03.732Z,169.00
2023-03-06T04:31:35.429Z,169.00
2023-03-06T04:32:07.313Z,169.00
2023-03-06T04:32:39.048Z,169.00
2023-03-06T04:33:10.704Z,169.00
2023-03-06T04:33:42.328Z,169.00
2023-03-06T04:34:13.973Z,169.00
2023-03-06T04:34:45.617Z,169.00
2023-03-06T04:35:17.448Z,168.67
2023-03-06T04:35:49.224Z,168.00
2023-03-06T04:36:45.160Z,168.00
2023-03-06T04:37:21.532Z,168.00
2023-03-06T04:37:53.264Z,167.33
2023-03-06T04:38:24.917Z,167.00
2023-03-06T04:38:57.014Z,166.67
2023-03-06T04:39:28.706Z,166.00
2023-03-06T04:40:00.361Z,165.00
2023-03-06T04:40:34.700Z,165.00
2023-03-06T04:41:06.429Z,165.00
2023-03-06T04:41:38.948Z,165.00
2023-03-06T04:42:10.733Z,165.00
2023-03-06T04:42:42.353Z,165.00
2023-03-06T04:43:14.091Z,165.00
2023-03-06T04:43:46.324Z,165.00
2023-03-06T04:44:18.011Z,165.00
2023-03-06T04:44:49.639Z,165.33
2023-03-06T04:45:21.385Z,171.33
2023-03-06T04:45:53.108Z,199.33
2023-03-06T04:46:24.770Z,217.00
2023-03-06T04:46:56.421Z,223.67
2023-03-06T04:47:28.305Z,221.33
2023-03-06T04:48:00.630Z,217.00
2023-03-06T04:48:32.424Z,208.33
2023-03-06T04:49:04.258Z,202.00
2023-03-06T04:49:36.152Z,199.67
2023-03-06T04:50:09.035Z,197.33
2023-03-06T04:50:40.921Z,195.67
2023-03-06T04:51:13.652Z,194.67
2023-03-06T04:51:45.267Z,193.67
2023-03-06T04:52:16.871Z,193.00
2023-03-06T04:52:48.690Z,192.33
2023-03-06T04:53:21.364Z,192.00
2023-03-06T04:53:53.033Z,192.00
2023-03-06T04:54:24.776Z,192.00
2023-03-06T04:54:56.424Z,192.00
2023-03-06T04:55:28.898Z,191.00
2023-03-06T04:56:00.545Z,192.00
2023-03-06T04:56:32.223Z,196.67
2023-03-06T04:57:04.880Z,208.00
2023-03-06T04:57:41.231Z,219.33
2023-03-06T04:58:14.963Z,221.33
2023-03-06T04:58:46.629Z,217.67
2023-03-06T04:59:18.347Z,213.00
2023-03-06T04:59:50.693Z,211.00
2023-03-06T05:00:25.237Z,208.67
2023-03-06T05:00:56.931Z,207.33
2023-03-06T05:01:28.600Z,207.00
2023-03-06T05:02:00.287Z,206.33
2023-03-06T05:02:33.411Z,205.67
2023-03-06T05:03:05.124Z,205.00
2023-03-06T05:03:36.787Z,205.00
2023-03-06T05:04:08.474Z,204.00
2023-03-06T05:04:40.139Z,204.00
2023-03-06T05:05:13.701Z,204.00
2023-03-06T05:05:45.335Z,203.33
2023-03-06T05:06:17.080Z,203.00
2023-03-06T05:06:48.700Z,203.00
2023-03-06T05:07:20.358Z,201.33
2023-03-06T05:07:52.682Z,198.67
2023-03-06T05:08:24.388Z,195.33
2023-03-06T05:08:56.058Z,194.67
2023-03-06T05:09:27.742Z,195.00
2023-03-06T05:10:00.501Z,195.00
2023-03-06T05:10:32.209Z,196.67
2023-03-06T05:11:04.078Z,200.00
2023-03-06T05:11:35.774Z,203.00
2023-03-06T05:12:07.669Z,204.00
2023-03-06T05:12:39.560Z,204.00
2023-03-06T05:13:12.372Z,204.00
2023-03-06T05:13:44.161Z,204.00
2023-03-06T05:14:15.797Z,204.00
2023-03-06T05:14:48.157Z,204.00
2023-03-06T05:15:20.233Z,204.67
2023-03-06T05:15:52.234Z,205.00
2023-03-06T05:16:23.935Z,205.67
2023-03-06T05:16:55.646Z,205.00
2023-03-06T05:17:27.292Z,204.67
2023-03-06T05:17:59.176Z,204.00
2023-03-06T05:18:31.412Z,203.67
2023-03-06T05:19:03.404Z,203.00
2023-03-06T05:19:35.037Z,202.00
2023-03-06T05:20:09.696Z,201.67
2023-03-06T05:20:41.374Z,202.00
2023-03-06T05:21:13.443Z,202.00
2023-03-06T05:21:45.098Z,202.00
2023-03-06T05:22:16.763Z,202.00
2023-03-06T05:22:48.438Z,202.00
2023-03-06T05:23:20.086Z,202.00
2023-03-06T05:23:51.706Z,202.00
2023-03-06T05:24:23.374Z,201.00
2023-03-06T05:24:55.001Z,201.00
2023-03-06T05:25:26.686Z,201.00
2023-03-06T05:25:58.383Z,201.00
2023-03-06T05:26:30.079Z,201.00
2023-03-06T05:27:01.742Z,200.33
2023-03-06T05:27:34.316Z,199.67
2023-03-06T05:28:06.902Z,199.00
2023-03-06T05:28:39.053Z,199.00
2023-03-06T05:29:10.733Z,199.00
2023-03-06T05:29:42.392Z,199.00
2023-03-06T05:30:14.957Z,199.00
2023-03-06T05:30:46.874Z,199.00
2023-03-06T05:31:18.702Z,198.00
2023-03-06T05:31:50.468Z,196.67
2023-03-06T05:32:22.947Z,196.00
2023-03-06T05:32:54.731Z,195.33
2023-03-06T05:33:26.708Z,195.00
2023-03-06T05:33:59.205Z,194.67
2023-03-06T05:34:31.054Z,194.00
2023-03-06T05:35:03.659Z,194.00
2023-03-06T05:35:35.395Z,194.00
2023-03-06T05:36:09.272Z,194.00
2023-03-06T05:36:41.336Z,194.00
2023-03-06T05:37:13.057Z,194.00
2023-03-06T05:37:44.962Z,194.67
2023-03-06T05:38:16.952Z,195.67
2023-03-06T05:38:48.784Z,197.33
2023-03-06T05:39:20.966Z,202.00
2023-03-06T05:39:52.687Z,206.67
2023-03-06T05:40:24.456Z,209.00
2023-03-06T05:40:56.183Z,211.33
2023-03-06T05:41:27.915Z,212.00
2023-03-06T05:41:59.744Z,212.67
2023-03-06T05:42:31.403Z,214.00
2023-03-06T05:43:03.056Z,215.67
2023-03-06T05:43:34.694Z,215.00
2023-03-06T05:44:06.324Z,216.33
2023-03-06T05:44:38.060Z,217.00
2023-03-06T05:45:10.457Z,217.33
2023-03-06T05:45:42.146Z,263.00
2023-03-06T05:46:14.254Z,385.00
2023-03-06T05:46:45.914Z,439.00
2023-03-06T05:47:17.615Z,425.67
2023-03-06T05:47:49.272Z,382.00
2023-03-06T05:48:20.907Z,324.33
2023-03-06T05:48:55.368Z,294.67
2023-03-06T05:49:31.201Z,280.33
2023-03-06T05:50:05.382Z,276.00
2023-03-06T05:50:37.038Z,274.33
2023-03-06T05:51:10.907Z,273.33
2023-03-06T05:51:42.689Z,272.00
2023-03-06T05:52:15.020Z,271.00
2023-03-06T05:52:46.658Z,271.00
2023-03-06T05:53:18.311Z,270.67
2023-03-06T05:53:50.084Z,270.00
2023-03-06T05:54:21.819Z,271.67
2023-03-06T05:54:54.664Z,273.67
2023-03-06T05:55:26.331Z,274.67
2023-03-06T05:55:57.904Z,276.00
2023-03-06T05:56:29.575Z,276.00
2023-03-06T05:57:01.958Z,275.33
2023-03-06T05:57:33.700Z,275.00
2023-03-06T05:58:05.347Z,274.00
2023-03-06T05:58:37.967Z,274.00
2023-03-06T05:59:09.611Z,273.33
2023-03-06T05:59:41.268Z,271.67
2023-03-06T06:00:14.862Z,269.33
2023-03-06T06:00:46.641Z,262.33
2023-03-06T06:01:20.629Z,257.00
2023-03-06T06:01:52.268Z,255.33
2023-03-06T06:02:23.885Z,252.67
2023-03-06T06:02:55.621Z,247.67
2023-03-06T06:03:27.537Z,243.00
2023-03-06T06:03:59.204Z,240.33
2023-03-06T06:04:30.952Z,236.33
2023-03-06T06:05:03.686Z,233.33
2023-03-06T06:05:39.548Z,231.33
2023-03-06T06:06:14.395Z,229.67
2023-03-06T06:06:46.056Z,226.33
2023-03-06T06:07:17.760Z,227.33
2023-03-06T06:07:49.539Z,228.33
2023-03-06T06:08:21.563Z,228.00
2023-03-06T06:08:53.861Z,226.33
2023-03-06T06:09:26.154Z,224.67
2023-03-06T06:09:57.821Z,223.00
2023-03-06T06:10:29.470Z,219.33
2023-03-06T06:11:01.547Z,208.33
2023-03-06T06:11:33.215Z,207.00
2023-03-06T06:12:05.178Z,210.33
2023-03-06T06:12:36.868Z,213.00
2023-03-06T06:13:08.949Z,215.33
2023-03-06T06:13:41.994Z,218.33
2023-03-06T06:14:14.813Z,219.67
2023-03-06T06:14:46.480Z,221.00
2023-03-06T06:15:18.177Z,222.00
2023-03-06T06:15:49.886Z,222.67
2023-03-06T06:16:21.591Z,222.67
2023-03-06T06:16:53.714Z,222.00
2023-03-06T06:17:25.393Z,219.67
2023-03-06T06:17:57.657Z,216.67
2023-03-06T06:18:29.332Z,215.67
2023-03-06T06:19:01.039Z,214.67
2023-03-06T06:19:32.819Z,213.33
2023-03-06T06:20:04.830Z,213.00
2023-03-06T06:20:37.871Z,212.67
2023-03-06T06:21:11.760Z,213.00
2023-03-06T06:21:43.411Z,214.00
2023-03-06T06:22:15.145Z,215.00
2023-03-06T06:22:46.838Z,215.33
2023-03-06T06:23:18.536Z,216.00
2023-03-06T06:23:50.166Z,216.00
2023-03-06T06:24:24.787Z,216.00
2023-03-06T06:24:56.464Z,217.00
2023-03-06T06:25:28.131Z,217.00
2023-03-06T06:26:07.184Z,216.00
2023-03-06T06:26:39.833Z,215.33
2023-03-06T06:27:11.534Z,215.00
2023-03-06T06:27:43.193Z,213.00
2023-03-06T06:28:14.851Z,211.00
2023-03-06T06:28:46.491Z,209.33
2023-03-06T06:29:18.151Z,209.00
2023-03-06T06:29:52.772Z,209.00
2023-03-06T06:30:24.735Z,208.33
2023-03-06T06:30:56.947Z,208.00
2023-03-06T06:31:28.729Z,209.00
2023-03-06T06:32:01.210Z,209.00
2023-03-06T06:32:33.001Z,209.33
2023-03-06T06:33:04.685Z,210.00
2023-03-06T06:33:36.296Z,211.00
2023-03-06T06:34:09.803Z,224.33
2023-03-06T06:34:41.453Z,259.33
2023-03-06T06:35:13.149Z,270.67
2023-03-06T06:35:44.811Z,279.00
2023-03-06T06:36:21.120Z,299.00
2023-03-06T06:36:54.426Z,353.67
2023-03-06T06:37:26.196Z,383.67
2023-03-06T06:37:57.860Z,375.33
2023-03-06T06:38:29.575Z,355.33
2023-03-06T06:39:01.496Z,332.00
2023-03-06T06:39:33.159Z,297.33
2023-03-06T06:40:05.358Z,283.33
2023-03-06T06:40:37.088Z,279.33
2023-03-06T06:41:38.866Z,266.33
2023-03-06T06:42:25.283Z,246.67
2023-03-06T06:42:53.895Z,235.67
2023-03-06T06:43:25.545Z,234.33
2023-03-06T06:43:59.077Z,235.00
2023-03-06T06:44:30.834Z,234.33
2023-03-06T06:45:05.183Z,235.67
2023-03-06T06:45:37.442Z,237.00
2023-03-06T06:46:31.467Z,239.33
2023-03-06T06:47:22.874Z,240.67
2023-03-06T06:47:52.419Z,242.00
2023-03-06T06:48:24.133Z,242.67
2023-03-06T06:48:55.974Z,243.67
2023-03-06T06:49:27.625Z,244.00
2023-03-06T06:49:59.315Z,244.67
2023-03-06T06:50:30.960Z,253.67
2023-03-06T06:51:02.615Z,287.33
2023-03-06T06:51:34.625Z,297.67
2023-03-06T06:52:07.485Z,395.67
2023-03-06T06:52:39.507Z,464.67